Archival Weather

Chicago O'Hare International

Chicago, Illinois (KORD)

Report from: Friday, December 2, 2022 3:51 PM CST
Current time: Friday, June 21, 2024 1:46 AM CDT

Current weather – Weather history – Daily summaries
Weather forecast

Temperature10.6°C (51.1°F)
Dew point0.6°C (33.1°F)
Winds 18 kts (9.3 m/s, 20.7 mph) South (190°)
Wind gusts 31 kts (15.9 m/s, 35.7 mph)
Peak wind 31 kts (15.9 m/s, 35.7 mph) South (190°) at 21:42
Visibility10 mi. (16.1 km)
Clouds Ceiling: Broken clouds 3,600 ft. (1,097 m)
Broken clouds 21,000 ft. (6,401 m)
Overcast 25,000 ft. (7,620 m)
Altimeter29.68 in.Hg (1005 mB)
Relative humidity50 %
Density altitude-161 ft. (-49 m)
Sea-level pressure100.5 kPa (1005 mB, 29.69 in.Hg)
Remarks Automated weather observing station with precipitation discriminator
Flight conditions Visual Meteorological Conditions
Raw dataKORD 022151Z 19018G31KT 10SM BKN036 BKN210 OVC250 11/01 A2968 RMK AO2 PK WND 19031/2142 SLP054 T01060006
An error has occurred. This application may no longer respond until reloaded. Reload 🗙